sensor_id;sensor_type;location;lat;lon;timestamp;P1;durP1;ratioP1;P2;durP2;ratioP2
2602;SDS011;1311;47.966;7.958;2023-09-08T00:02:27;11.80;;;10.70;;
2602;SDS011;1311;47.966;7.958;2023-09-08T00:04:54;13.37;;;11.50;;
2602;SDS011;1311;47.966;7.958;2023-09-08T00:07:21;13.30;;;12.00;;
2602;SDS011;1311;47.966;7.958;2023-09-08T00:09:48;11.47;;;10.37;;
2602;SDS011;1311;47.966;7.958;2023-09-08T00:12:15;11.67;;;10.47;;
2602;SDS011;1311;47.966;7.958;2023-09-08T00:14:42;11.43;;;10.43;;
2602;SDS011;1311;47.966;7.958;2023-09-08T00:17:09;12.40;;;10.90;;
2602;SDS011;1311;47.966;7.958;2023-09-08T00:19:37;12.80;;;10.90;;
2602;SDS011;1311;47.966;7.958;2023-09-08T00:22:04;11.00;;;9.90;;
2602;SDS011;1311;47.966;7.958;2023-09-08T00:24:32;12.17;;;10.90;;
2602;SDS011;1311;47.966;7.958;2023-09-08T00:26:59;10.63;;;9.63;;
2602;SDS011;1311;47.966;7.958;2023-09-08T00:29:26;12.60;;;11.40;;
2602;SDS011;1311;47.966;7.958;2023-09-08T00:31:52;13.00;;;11.70;;
2602;SDS011;1311;47.966;7.958;2023-09-08T00:34:19;11.77;;;10.67;;
2602;SDS011;1311;47.966;7.958;2023-09-08T00:36:47;13.80;;;12.30;;
2602;SDS011;1311;47.966;7.958;2023-09-08T00:39:14;11.97;;;10.83;;
2602;SDS011;1311;47.966;7.958;2023-09-08T00:41:41;10.97;;;9.87;;
2602;SDS011;1311;47.966;7.958;2023-09-08T00:44:07;12.17;;;10.80;;
2602;SDS011;1311;47.966;7.958;2023-09-08T00:46:36;12.30;;;11.10;;
2602;SDS011;1311;47.966;7.958;2023-09-08T00:49:03;15.07;;;12.03;;
2602;SDS011;1311;47.966;7.958;2023-09-08T00:51:31;11.23;;;9.90;;
2602;SDS011;1311;47.966;7.958;2023-09-08T00:53:59;11.00;;;9.90;;
2602;SDS011;1311;47.966;7.958;2023-09-08T00:56:26;11.83;;;10.63;;
2602;SDS011;1311;47.966;7.958;2023-09-08T00:58:55;11.50;;;10.40;;
2602;SDS011;1311;47.966;7.958;2023-09-08T01:01:22;11.70;;;10.50;;
2602;SDS011;1311;47.966;7.958;2023-09-08T01:03:48;11.33;;;10.23;;
2602;SDS011;1311;47.966;7.958;2023-09-08T01:06:15;12.17;;;10.67;;
2602;SDS011;1311;47.966;7.958;2023-09-08T01:08:42;12.20;;;11.00;;
2602;SDS011;1311;47.966;7.958;2023-09-08T01:11:11;14.60;;;12.27;;
2602;SDS011;1311;47.966;7.958;2023-09-08T01:13:38;14.97;;;11.43;;
2602;SDS011;1311;47.966;7.958;2023-09-08T01:16:04;12.17;;;10.87;;
2602;SDS011;1311;47.966;7.958;2023-09-08T01:18:31;13.37;;;12.07;;
2602;SDS011;1311;47.966;7.958;2023-09-08T01:21:03;11.87;;;10.80;;
2602;SDS011;1311;47.966;7.958;2023-09-08T01:23:45;12.20;;;11.00;;
2602;SDS011;1311;47.966;7.958;2023-09-08T01:26:26;11.63;;;10.53;;
2602;SDS011;1311;47.966;7.958;2023-09-08T01:28:56;11.27;;;10.27;;
2602;SDS011;1311;47.966;7.958;2023-09-08T01:31:24;12.90;;;10.43;;
2602;SDS011;1311;47.966;7.958;2023-09-08T01:33:51;11.77;;;10.77;;
2602;SDS011;1311;47.966;7.958;2023-09-08T01:36:18;12.87;;;11.60;;
2602;SDS011;1311;47.966;7.958;2023-09-08T01:38:45;12.70;;;11.40;;
2602;SDS011;1311;47.966;7.958;2023-09-08T01:41:12;13.20;;;12.00;;
2602;SDS011;1311;47.966;7.958;2023-09-08T01:43:40;13.53;;;12.20;;
2602;SDS011;1311;47.966;7.958;2023-09-08T01:46:06;12.17;;;10.97;;
2602;SDS011;1311;47.966;7.958;2023-09-08T01:48:33;13.73;;;12.47;;
2602;SDS011;1311;47.966;7.958;2023-09-08T01:51:00;12.60;;;11.40;;
2602;SDS011;1311;47.966;7.958;2023-09-08T01:53:27;13.47;;;11.47;;
2602;SDS011;1311;47.966;7.958;2023-09-08T01:55:56;12.77;;;11.47;;
2602;SDS011;1311;47.966;7.958;2023-09-08T01:58:22;13.37;;;12.07;;
2602;SDS011;1311;47.966;7.958;2023-09-08T02:00:51;12.50;;;11.30;;
2602;SDS011;1311;47.966;7.958;2023-09-08T02:03:18;13.47;;;12.20;;
2602;SDS011;1311;47.966;7.958;2023-09-08T02:05:44;12.40;;;11.27;;
2602;SDS011;1311;47.966;7.958;2023-09-08T02:08:12;12.60;;;11.40;;
2602;SDS011;1311;47.966;7.958;2023-09-08T02:10:40;11.70;;;10.60;;
2602;SDS011;1311;47.966;7.958;2023-09-08T02:13:06;11.47;;;10.30;;
2602;SDS011;1311;47.966;7.958;2023-09-08T02:15:34;12.83;;;11.60;;
2602;SDS011;1311;47.966;7.958;2023-09-08T02:18:04;13.40;;;12.00;;
2602;SDS011;1311;47.966;7.958;2023-09-08T02:20:32;13.83;;;12.53;;
2602;SDS011;1311;47.966;7.958;2023-09-08T02:23:03;12.03;;;10.80;;
2602;SDS011;1311;47.966;7.958;2023-09-08T02:25:32;12.80;;;11.13;;
2602;SDS011;1311;47.966;7.958;2023-09-08T02:27:59;12.10;;;10.37;;
2602;SDS011;1311;47.966;7.958;2023-09-08T02:30:25;11.30;;;10.20;;
2602;SDS011;1311;47.966;7.958;2023-09-08T02:32:52;11.20;;;10.20;;
2602;SDS011;1311;47.966;7.958;2023-09-08T02:35:21;12.07;;;10.97;;
2602;SDS011;1311;47.966;7.958;2023-09-08T02:37:49;11.30;;;10.20;;
2602;SDS011;1311;47.966;7.958;2023-09-08T02:40:15;11.57;;;10.57;;
2602;SDS011;1311;47.966;7.958;2023-09-08T02:42:42;11.40;;;10.30;;
2602;SDS011;1311;47.966;7.958;2023-09-08T02:45:10;12.30;;;11.10;;
2602;SDS011;1311;47.966;7.958;2023-09-08T02:47:36;14.10;;;11.30;;
2602;SDS011;1311;47.966;7.958;2023-09-08T02:50:03;11.43;;;10.33;;
2602;SDS011;1311;47.966;7.958;2023-09-08T02:52:32;12.20;;;11.00;;
2602;SDS011;1311;47.966;7.958;2023-09-08T02:54:59;11.73;;;10.63;;
2602;SDS011;1311;47.966;7.958;2023-09-08T02:57:26;12.50;;;11.30;;
2602;SDS011;1311;47.966;7.958;2023-09-08T02:59:53;11.93;;;10.63;;
2602;SDS011;1311;47.966;7.958;2023-09-08T03:02:21;12.57;;;11.07;;
2602;SDS011;1311;47.966;7.958;2023-09-08T03:04:48;15.77;;;11.83;;
2602;SDS011;1311;47.966;7.958;2023-09-08T03:07:16;12.00;;;10.93;;
2602;SDS011;1311;47.966;7.958;2023-09-08T03:09:44;13.57;;;12.27;;
2602;SDS011;1311;47.966;7.958;2023-09-08T03:12:10;12.77;;;11.47;;
2602;SDS011;1311;47.966;7.958;2023-09-08T03:14:37;11.70;;;10.50;;
2602;SDS011;1311;47.966;7.958;2023-09-08T03:17:04;12.00;;;10.77;;
2602;SDS011;1311;47.966;7.958;2023-09-08T03:19:31;15.50;;;11.67;;
2602;SDS011;1311;47.966;7.958;2023-09-08T03:21:58;12.97;;;11.67;;
2602;SDS011;1311;47.966;7.958;2023-09-08T03:24:25;12.07;;;10.87;;
2602;SDS011;1311;47.966;7.958;2023-09-08T03:26:53;13.37;;;12.17;;
2602;SDS011;1311;47.966;7.958;2023-09-08T03:29:20;13.60;;;12.30;;
2602;SDS011;1311;47.966;7.958;2023-09-08T03:31:46;13.90;;;12.50;;
2602;SDS011;1311;47.966;7.958;2023-09-08T03:34:13;13.07;;;11.77;;
2602;SDS011;1311;47.966;7.958;2023-09-08T03:36:40;12.60;;;11.40;;
2602;SDS011;1311;47.966;7.958;2023-09-08T03:39:07;11.67;;;10.57;;
2602;SDS011;1311;47.966;7.958;2023-09-08T03:41:34;14.67;;;11.60;;
2602;SDS011;1311;47.966;7.958;2023-09-08T03:44:03;12.50;;;11.17;;
2602;SDS011;1311;47.966;7.958;2023-09-08T03:46:29;13.40;;;12.10;;
2602;SDS011;1311;47.966;7.958;2023-09-08T03:48:56;12.80;;;11.60;;
2602;SDS011;1311;47.966;7.958;2023-09-08T03:51:25;12.87;;;11.70;;
2602;SDS011;1311;47.966;7.958;2023-09-08T03:53:52;12.53;;;11.33;;
2602;SDS011;1311;47.966;7.958;2023-09-08T03:56:19;11.80;;;10.60;;
2602;SDS011;1311;47.966;7.958;2023-09-08T03:58:46;13.10;;;11.80;;
2602;SDS011;1311;47.966;7.958;2023-09-08T04:01:15;12.17;;;11.03;;
2602;SDS011;1311;47.966;7.958;2023-09-08T04:03:42;13.40;;;12.10;;
2602;SDS011;1311;47.966;7.958;2023-09-08T04:06:08;14.33;;;12.37;;
2602;SDS011;1311;47.966;7.958;2023-09-08T04:08:35;13.10;;;11.90;;
2602;SDS011;1311;47.966;7.958;2023-09-08T04:11:02;13.23;;;11.93;;
2602;SDS011;1311;47.966;7.958;2023-09-08T04:13:29;12.60;;;11.43;;
2602;SDS011;1311;47.966;7.958;2023-09-08T04:15:55;12.77;;;11.57;;
2602;SDS011;1311;47.966;7.958;2023-09-08T04:18:23;16.33;;;12.73;;
2602;SDS011;1311;47.966;7.958;2023-09-08T04:20:50;12.73;;;11.63;;
2602;SDS011;1311;47.966;7.958;2023-09-08T04:23:17;14.80;;;12.13;;
2602;SDS011;1311;47.966;7.958;2023-09-08T04:25:44;14.00;;;12.63;;
2602;SDS011;1311;47.966;7.958;2023-09-08T04:28:11;12.13;;;11.00;;
2602;SDS011;1311;47.966;7.958;2023-09-08T04:30:38;18.70;;;13.77;;
2602;SDS011;1311;47.966;7.958;2023-09-08T04:33:19;12.60;;;11.40;;
2602;SDS011;1311;47.966;7.958;2023-09-08T04:35:48;13.03;;;11.63;;
2602;SDS011;1311;47.966;7.958;2023-09-08T04:38:14;14.93;;;11.53;;
2602;SDS011;1311;47.966;7.958;2023-09-08T04:40:41;14.17;;;12.87;;
2602;SDS011;1311;47.966;7.958;2023-09-08T04:43:08;13.40;;;11.97;;
2602;SDS011;1311;47.966;7.958;2023-09-08T04:45:35;15.77;;;14.17;;
2602;SDS011;1311;47.966;7.958;2023-09-08T04:48:02;14.10;;;12.60;;
2602;SDS011;1311;47.966;7.958;2023-09-08T04:50:30;16.83;;;14.73;;
2602;SDS011;1311;47.966;7.958;2023-09-08T04:52:58;17.87;;;14.50;;
2602;SDS011;1311;47.966;7.958;2023-09-08T04:55:26;15.43;;;13.40;;
2602;SDS011;1311;47.966;7.958;2023-09-08T04:57:53;15.33;;;12.50;;
2602;SDS011;1311;47.966;7.958;2023-09-08T05:00:20;13.87;;;12.47;;
2602;SDS011;1311;47.966;7.958;2023-09-08T05:02:47;16.77;;;12.80;;
2602;SDS011;1311;47.966;7.958;2023-09-08T05:05:14;13.77;;;11.03;;
2602;SDS011;1311;47.966;7.958;2023-09-08T05:07:40;11.67;;;10.50;;
2602;SDS011;1311;47.966;7.958;2023-09-08T05:10:09;12.00;;;10.90;;
2602;SDS011;1311;47.966;7.958;2023-09-08T05:12:36;11.60;;;10.40;;
2602;SDS011;1311;47.966;7.958;2023-09-08T05:15:03;12.23;;;10.97;;
2602;SDS011;1311;47.966;7.958;2023-09-08T05:17:35;13.00;;;10.50;;
2602;SDS011;1311;47.966;7.958;2023-09-08T05:20:02;13.00;;;11.70;;
2602;SDS011;1311;47.966;7.958;2023-09-08T05:22:29;12.07;;;10.40;;
2602;SDS011;1311;47.966;7.958;2023-09-08T05:24:56;12.50;;;11.20;;
2602;SDS011;1311;47.966;7.958;2023-09-08T05:27:24;13.90;;;12.50;;
2602;SDS011;1311;47.966;7.958;2023-09-08T05:30:06;12.30;;;11.20;;
2602;SDS011;1311;47.966;7.958;2023-09-08T05:32:34;11.97;;;10.77;;
2602;SDS011;1311;47.966;7.958;2023-09-08T05:35:01;11.70;;;10.60;;
2602;SDS011;1311;47.966;7.958;2023-09-08T05:37:28;11.70;;;10.60;;
2602;SDS011;1311;47.966;7.958;2023-09-08T05:39:55;10.97;;;9.97;;
2602;SDS011;1311;47.966;7.958;2023-09-08T05:42:22;12.03;;;10.90;;
2602;SDS011;1311;47.966;7.958;2023-09-08T05:44:50;11.30;;;10.10;;
2602;SDS011;1311;47.966;7.958;2023-09-08T05:47:19;10.33;;;9.33;;
2602;SDS011;1311;47.966;7.958;2023-09-08T05:49:46;10.43;;;9.43;;
2602;SDS011;1311;47.966;7.958;2023-09-08T05:52:13;10.13;;;9.20;;
2602;SDS011;1311;47.966;7.958;2023-09-08T05:54:40;10.27;;;9.37;;
2602;SDS011;1311;47.966;7.958;2023-09-08T05:57:07;10.80;;;8.87;;
2602;SDS011;1311;47.966;7.958;2023-09-08T05:59:33;11.43;;;10.37;;
2602;SDS011;1311;47.966;7.958;2023-09-08T06:02:02;11.10;;;10.00;;
2602;SDS011;1311;47.966;7.958;2023-09-08T06:04:29;11.40;;;10.40;;
2602;SDS011;1311;47.966;7.958;2023-09-08T06:06:57;11.83;;;10.70;;
2602;SDS011;1311;47.966;7.958;2023-09-08T06:09:24;11.20;;;10.10;;
2602;SDS011;1311;47.966;7.958;2023-09-08T06:11:50;11.20;;;10.13;;
2602;SDS011;1311;47.966;7.958;2023-09-08T06:14:17;12.47;;;11.37;;
2602;SDS011;1311;47.966;7.958;2023-09-08T06:16:44;12.90;;;9.87;;
2602;SDS011;1311;47.966;7.958;2023-09-08T06:19:13;10.90;;;9.90;;
2602;SDS011;1311;47.966;7.958;2023-09-08T06:21:39;12.03;;;10.10;;
2602;SDS011;1311;47.966;7.958;2023-09-08T06:24:06;10.03;;;9.03;;
2602;SDS011;1311;47.966;7.958;2023-09-08T06:26:33;10.57;;;9.67;;
2602;SDS011;1311;47.966;7.958;2023-09-08T06:29:00;10.43;;;9.43;;
2602;SDS011;1311;47.966;7.958;2023-09-08T06:31:27;9.83;;;8.93;;
2602;SDS011;1311;47.966;7.958;2023-09-08T06:33:54;10.53;;;9.53;;
2602;SDS011;1311;47.966;7.958;2023-09-08T06:36:22;10.40;;;9.60;;
2602;SDS011;1311;47.966;7.958;2023-09-08T06:38:48;10.70;;;9.77;;
2602;SDS011;1311;47.966;7.958;2023-09-08T06:41:15;9.90;;;9.00;;
2602;SDS011;1311;47.966;7.958;2023-09-08T06:43:42;10.10;;;9.10;;
2602;SDS011;1311;47.966;7.958;2023-09-08T06:46:10;11.17;;;9.77;;
2602;SDS011;1311;47.966;7.958;2023-09-08T06:48:36;9.67;;;8.77;;
2602;SDS011;1311;47.966;7.958;2023-09-08T06:51:03;10.13;;;9.13;;
2602;SDS011;1311;47.966;7.958;2023-09-08T06:53:31;9.40;;;8.50;;
2602;SDS011;1311;47.966;7.958;2023-09-08T06:55:58;9.20;;;8.40;;
2602;SDS011;1311;47.966;7.958;2023-09-08T06:58:25;9.17;;;8.20;;
2602;SDS011;1311;47.966;7.958;2023-09-08T07:00:51;9.60;;;8.73;;
2602;SDS011;1311;47.966;7.958;2023-09-08T07:03:19;9.40;;;8.50;;
2602;SDS011;1311;47.966;7.958;2023-09-08T07:05:47;9.40;;;8.60;;
2602;SDS011;1311;47.966;7.958;2023-09-08T07:08:13;10.53;;;9.50;;
2602;SDS011;1311;47.966;7.958;2023-09-08T07:10:42;9.27;;;8.37;;
2602;SDS011;1311;47.966;7.958;2023-09-08T07:13:09;10.27;;;9.37;;
2602;SDS011;1311;47.966;7.958;2023-09-08T07:15:36;9.67;;;8.80;;
2602;SDS011;1311;47.966;7.958;2023-09-08T07:18:03;9.13;;;8.30;;
2602;SDS011;1311;47.966;7.958;2023-09-08T07:20:30;9.57;;;8.70;;
2602;SDS011;1311;47.966;7.958;2023-09-08T07:22:57;9.00;;;8.17;;
2602;SDS011;1311;47.966;7.958;2023-09-08T07:25:24;9.93;;;9.03;;
2602;SDS011;1311;47.966;7.958;2023-09-08T07:27:52;9.90;;;9.00;;
2602;SDS011;1311;47.966;7.958;2023-09-08T07:30:18;9.80;;;8.87;;
2602;SDS011;1311;47.966;7.958;2023-09-08T07:32:45;11.03;;;9.93;;
2602;SDS011;1311;47.966;7.958;2023-09-08T07:35:12;9.90;;;9.10;;
2602;SDS011;1311;47.966;7.958;2023-09-08T07:37:41;9.67;;;8.87;;
2602;SDS011;1311;47.966;7.958;2023-09-08T07:40:09;10.37;;;9.43;;
2602;SDS011;1311;47.966;7.958;2023-09-08T07:42:36;10.60;;;9.60;;
2602;SDS011;1311;47.966;7.958;2023-09-08T07:45:05;8.90;;;8.20;;
2602;SDS011;1311;47.966;7.958;2023-09-08T07:47:34;10.23;;;9.33;;
2602;SDS011;1311;47.966;7.958;2023-09-08T07:50:19;10.27;;;9.37;;
2602;SDS011;1311;47.966;7.958;2023-09-08T07:52:47;9.00;;;8.10;;
2602;SDS011;1311;47.966;7.958;2023-09-08T07:55:15;9.80;;;8.90;;
2602;SDS011;1311;47.966;7.958;2023-09-08T07:57:42;8.63;;;7.83;;
2602;SDS011;1311;47.966;7.958;2023-09-08T08:00:12;9.40;;;8.50;;
2602;SDS011;1311;47.966;7.958;2023-09-08T08:02:42;9.93;;;9.13;;
2602;SDS011;1311;47.966;7.958;2023-09-08T08:05:09;11.03;;;9.93;;
2602;SDS011;1311;47.966;7.958;2023-09-08T08:07:37;11.43;;;10.10;;
2602;SDS011;1311;47.966;7.958;2023-09-08T08:10:04;9.80;;;8.87;;
2602;SDS011;1311;47.966;7.958;2023-09-08T08:12:32;8.93;;;8.13;;
2602;SDS011;1311;47.966;7.958;2023-09-08T08:14:59;9.03;;;8.23;;
2602;SDS011;1311;47.966;7.958;2023-09-08T08:17:27;8.90;;;8.20;;
2602;SDS011;1311;47.966;7.958;2023-09-08T08:19:55;9.33;;;8.40;;
2602;SDS011;1311;47.966;7.958;2023-09-08T08:22:23;9.03;;;8.23;;
2602;SDS011;1311;47.966;7.958;2023-09-08T08:24:50;9.47;;;8.67;;
2602;SDS011;1311;47.966;7.958;2023-09-08T08:27:17;8.63;;;7.93;;
2602;SDS011;1311;47.966;7.958;2023-09-08T08:29:43;9.03;;;8.20;;
2602;SDS011;1311;47.966;7.958;2023-09-08T08:32:10;9.47;;;8.57;;
2602;SDS011;1311;47.966;7.958;2023-09-08T08:34:38;9.60;;;8.70;;
2602;SDS011;1311;47.966;7.958;2023-09-08T08:37:05;9.67;;;8.87;;
2602;SDS011;1311;47.966;7.958;2023-09-08T08:39:32;9.73;;;8.60;;
2602;SDS011;1311;47.966;7.958;2023-09-08T08:41:59;9.37;;;8.57;;
2602;SDS011;1311;47.966;7.958;2023-09-08T08:44:32;8.40;;;7.60;;
2602;SDS011;1311;47.966;7.958;2023-09-08T08:47:00;8.00;;;7.40;;
2602;SDS011;1311;47.966;7.958;2023-09-08T08:49:29;8.50;;;7.80;;
2602;SDS011;1311;47.966;7.958;2023-09-08T08:51:59;8.60;;;7.90;;
2602;SDS011;1311;47.966;7.958;2023-09-08T08:54:32;8.13;;;7.43;;
2602;SDS011;1311;47.966;7.958;2023-09-08T08:57:00;9.30;;;8.50;;
2602;SDS011;1311;47.966;7.958;2023-09-08T08:59:28;8.17;;;7.57;;
2602;SDS011;1311;47.966;7.958;2023-09-08T09:01:55;8.67;;;7.97;;
2602;SDS011;1311;47.966;7.958;2023-09-08T09:04:23;8.27;;;7.60;;
2602;SDS011;1311;47.966;7.958;2023-09-08T09:06:52;8.00;;;7.40;;
2602;SDS011;1311;47.966;7.958;2023-09-08T09:09:21;8.50;;;7.80;;
2602;SDS011;1311;47.966;7.958;2023-09-08T09:11:49;8.10;;;7.50;;
2602;SDS011;1311;47.966;7.958;2023-09-08T09:14:16;8.70;;;8.00;;
2602;SDS011;1311;47.966;7.958;2023-09-08T09:16:44;8.90;;;8.13;;
2602;SDS011;1311;47.966;7.958;2023-09-08T09:19:17;10.00;;;9.13;;
2602;SDS011;1311;47.966;7.958;2023-09-08T09:21:46;9.23;;;8.53;;
2602;SDS011;1311;47.966;7.958;2023-09-08T09:24:16;8.80;;;8.10;;
2602;SDS011;1311;47.966;7.958;2023-09-08T09:26:45;9.00;;;8.23;;
2602;SDS011;1311;47.966;7.958;2023-09-08T09:29:11;9.17;;;8.37;;
2602;SDS011;1311;47.966;7.958;2023-09-08T09:31:46;8.73;;;7.90;;
2602;SDS011;1311;47.966;7.958;2023-09-08T09:34:20;8.30;;;7.50;;
2602;SDS011;1311;47.966;7.958;2023-09-08T09:36:47;8.23;;;7.53;;
2602;SDS011;1311;47.966;7.958;2023-09-08T09:39:16;8.00;;;7.40;;
2602;SDS011;1311;47.966;7.958;2023-09-08T09:41:45;9.10;;;8.30;;
2602;SDS011;1311;47.966;7.958;2023-09-08T09:44:12;8.33;;;7.63;;
2602;SDS011;1311;47.966;7.958;2023-09-08T09:46:42;8.53;;;7.50;;
2602;SDS011;1311;47.966;7.958;2023-09-08T09:49:11;9.30;;;8.50;;
2602;SDS011;1311;47.966;7.958;2023-09-08T09:51:40;8.77;;;7.43;;
2602;SDS011;1311;47.966;7.958;2023-09-08T09:54:08;8.67;;;7.90;;
2602;SDS011;1311;47.966;7.958;2023-09-08T09:56:36;9.43;;;8.40;;
2602;SDS011;1311;47.966;7.958;2023-09-08T09:59:05;9.07;;;8.03;;
2602;SDS011;1311;47.966;7.958;2023-09-08T10:01:34;9.13;;;8.17;;
2602;SDS011;1311;47.966;7.958;2023-09-08T10:04:02;8.60;;;7.80;;
2602;SDS011;1311;47.966;7.958;2023-09-08T10:06:31;8.37;;;7.57;;
2602;SDS011;1311;47.966;7.958;2023-09-08T10:08:58;8.33;;;7.00;;
2602;SDS011;1311;47.966;7.958;2023-09-08T10:11:28;8.70;;;7.47;;
2602;SDS011;1311;47.966;7.958;2023-09-08T10:13:57;8.20;;;7.40;;
2602;SDS011;1311;47.966;7.958;2023-09-08T10:16:26;8.47;;;7.67;;
2602;SDS011;1311;47.966;7.958;2023-09-08T10:18:54;7.80;;;7.10;;
2602;SDS011;1311;47.966;7.958;2023-09-08T10:21:24;7.47;;;6.83;;
2602;SDS011;1311;47.966;7.958;2023-09-08T10:23:54;8.40;;;7.60;;
2602;SDS011;1311;47.966;7.958;2023-09-08T10:26:29;7.47;;;6.87;;
2602;SDS011;1311;47.966;7.958;2023-09-08T10:28:59;7.80;;;7.10;;
2602;SDS011;1311;47.966;7.958;2023-09-08T10:31:28;9.37;;;7.70;;
2602;SDS011;1311;47.966;7.958;2023-09-08T10:33:56;7.10;;;6.50;;
2602;SDS011;1311;47.966;7.958;2023-09-08T10:36:24;7.90;;;7.20;;
2602;SDS011;1311;47.966;7.958;2023-09-08T10:38:51;6.60;;;5.97;;
2602;SDS011;1311;47.966;7.958;2023-09-08T10:41:26;6.77;;;6.07;;
2602;SDS011;1311;47.966;7.958;2023-09-08T10:43:57;6.33;;;5.70;;
2602;SDS011;1311;47.966;7.958;2023-09-08T10:46:31;7.07;;;6.47;;
2602;SDS011;1311;47.966;7.958;2023-09-08T10:49:01;7.17;;;6.47;;
2602;SDS011;1311;47.966;7.958;2023-09-08T10:51:30;6.63;;;6.00;;
2602;SDS011;1311;47.966;7.958;2023-09-08T10:53:57;6.80;;;6.17;;
2602;SDS011;1311;47.966;7.958;2023-09-08T10:56:28;6.40;;;5.90;;
2602;SDS011;1311;47.966;7.958;2023-09-08T10:58:58;7.07;;;6.47;;
2602;SDS011;1311;47.966;7.958;2023-09-08T11:01:26;6.73;;;6.23;;
2602;SDS011;1311;47.966;7.958;2023-09-08T11:03:55;6.23;;;5.73;;
2602;SDS011;1311;47.966;7.958;2023-09-08T11:06:23;6.70;;;6.10;;
2602;SDS011;1311;47.966;7.958;2023-09-08T11:08:55;7.00;;;6.40;;
2602;SDS011;1311;47.966;7.958;2023-09-08T11:11:23;6.77;;;6.20;;
2602;SDS011;1311;47.966;7.958;2023-09-08T11:13:51;6.83;;;6.33;;
2602;SDS011;1311;47.966;7.958;2023-09-08T11:16:18;6.20;;;5.70;;
2602;SDS011;1311;47.966;7.958;2023-09-08T11:18:50;6.83;;;5.57;;
2602;SDS011;1311;47.966;7.958;2023-09-08T11:21:18;6.97;;;6.37;;
2602;SDS011;1311;47.966;7.958;2023-09-08T11:23:45;6.50;;;5.80;;
2602;SDS011;1311;47.966;7.958;2023-09-08T11:26:12;6.97;;;6.27;;
2602;SDS011;1311;47.966;7.958;2023-09-08T11:28:40;6.80;;;6.13;;
2602;SDS011;1311;47.966;7.958;2023-09-08T11:31:07;6.10;;;5.60;;
2602;SDS011;1311;47.966;7.958;2023-09-08T11:33:37;5.30;;;4.90;;
2602;SDS011;1311;47.966;7.958;2023-09-08T11:36:11;6.37;;;5.77;;
2602;SDS011;1311;47.966;7.958;2023-09-08T11:38:41;6.37;;;5.77;;
2602;SDS011;1311;47.966;7.958;2023-09-08T11:41:09;6.43;;;5.83;;
2602;SDS011;1311;47.966;7.958;2023-09-08T11:43:36;6.30;;;5.70;;
2602;SDS011;1311;47.966;7.958;2023-09-08T11:46:03;6.60;;;6.10;;
2602;SDS011;1311;47.966;7.958;2023-09-08T11:48:32;6.63;;;6.03;;
2602;SDS011;1311;47.966;7.958;2023-09-08T11:51:00;6.57;;;6.00;;
2602;SDS011;1311;47.966;7.958;2023-09-08T11:53:27;6.83;;;6.27;;
2602;SDS011;1311;47.966;7.958;2023-09-08T11:55:55;7.30;;;6.70;;
2602;SDS011;1311;47.966;7.958;2023-09-08T11:58:22;7.73;;;7.00;;
2602;SDS011;1311;47.966;7.958;2023-09-08T12:00:50;7.67;;;6.97;;
2602;SDS011;1311;47.966;7.958;2023-09-08T12:03:16;7.30;;;6.60;;
2602;SDS011;1311;47.966;7.958;2023-09-08T12:05:43;8.20;;;7.50;;
2602;SDS011;1311;47.966;7.958;2023-09-08T12:08:16;6.83;;;6.33;;
2602;SDS011;1311;47.966;7.958;2023-09-08T12:10:43;7.30;;;6.70;;
2602;SDS011;1311;47.966;7.958;2023-09-08T12:13:11;7.37;;;6.77;;
2602;SDS011;1311;47.966;7.958;2023-09-08T12:15:39;6.30;;;5.80;;
2602;SDS011;1311;47.966;7.958;2023-09-08T12:18:07;13.70;;;6.40;;
2602;SDS011;1311;47.966;7.958;2023-09-08T12:20:35;6.80;;;6.20;;
2602;SDS011;1311;47.966;7.958;2023-09-08T12:23:04;6.83;;;6.23;;
2602;SDS011;1311;47.966;7.958;2023-09-08T12:25:32;6.47;;;5.87;;
2602;SDS011;1311;47.966;7.958;2023-09-08T12:28:00;6.17;;;5.57;;
2602;SDS011;1311;47.966;7.958;2023-09-08T12:30:29;6.50;;;5.90;;
2602;SDS011;1311;47.966;7.958;2023-09-08T12:32:58;6.33;;;5.70;;
2602;SDS011;1311;47.966;7.958;2023-09-08T12:35:26;5.67;;;5.17;;
2602;SDS011;1311;47.966;7.958;2023-09-08T12:37:57;7.13;;;5.70;;
2602;SDS011;1311;47.966;7.958;2023-09-08T12:40:25;5.87;;;5.20;;
2602;SDS011;1311;47.966;7.958;2023-09-08T12:42:52;5.30;;;4.83;;
2602;SDS011;1311;47.966;7.958;2023-09-08T12:45:19;5.20;;;4.80;;
2602;SDS011;1311;47.966;7.958;2023-09-08T12:47:48;5.30;;;4.90;;
2602;SDS011;1311;47.966;7.958;2023-09-08T12:50:15;6.40;;;5.23;;
2602;SDS011;1311;47.966;7.958;2023-09-08T12:52:42;5.50;;;5.00;;
2602;SDS011;1311;47.966;7.958;2023-09-08T12:55:09;6.20;;;5.60;;
2602;SDS011;1311;47.966;7.958;2023-09-08T12:57:36;5.43;;;4.93;;
2602;SDS011;1311;47.966;7.958;2023-09-08T13:00:04;6.63;;;4.83;;
2602;SDS011;1311;47.966;7.958;2023-09-08T13:02:32;5.37;;;4.90;;
2602;SDS011;1311;47.966;7.958;2023-09-08T13:05:01;4.70;;;4.30;;
2602;SDS011;1311;47.966;7.958;2023-09-08T13:07:28;5.17;;;4.77;;
2602;SDS011;1311;47.966;7.958;2023-09-08T13:09:54;7.93;;;4.80;;
2602;SDS011;1311;47.966;7.958;2023-09-08T13:12:21;5.10;;;4.47;;
2602;SDS011;1311;47.966;7.958;2023-09-08T13:14:48;4.83;;;4.37;;
2602;SDS011;1311;47.966;7.958;2023-09-08T13:17:15;6.97;;;4.40;;
2602;SDS011;1311;47.966;7.958;2023-09-08T13:19:41;4.90;;;4.40;;
2602;SDS011;1311;47.966;7.958;2023-09-08T13:22:10;4.40;;;4.00;;
2602;SDS011;1311;47.966;7.958;2023-09-08T13:24:36;6.87;;;4.80;;
2602;SDS011;1311;47.966;7.958;2023-09-08T13:27:04;3.90;;;3.50;;
2602;SDS011;1311;47.966;7.958;2023-09-08T13:29:31;6.23;;;3.93;;
2602;SDS011;1311;47.966;7.958;2023-09-08T13:31:58;5.67;;;4.90;;
2602;SDS011;1311;47.966;7.958;2023-09-08T13:34:24;5.20;;;4.70;;
2602;SDS011;1311;47.966;7.958;2023-09-08T13:36:51;6.40;;;4.13;;
2602;SDS011;1311;47.966;7.958;2023-09-08T13:39:19;4.50;;;4.10;;
2602;SDS011;1311;47.966;7.958;2023-09-08T13:41:47;4.33;;;3.93;;
2602;SDS011;1311;47.966;7.958;2023-09-08T13:44:15;5.90;;;4.70;;
2602;SDS011;1311;47.966;7.958;2023-09-08T13:46:42;4.80;;;4.40;;
2602;SDS011;1311;47.966;7.958;2023-09-08T13:49:09;5.17;;;4.67;;
2602;SDS011;1311;47.966;7.958;2023-09-08T13:51:36;4.80;;;4.50;;
2602;SDS011;1311;47.966;7.958;2023-09-08T13:54:03;5.37;;;4.93;;
2602;SDS011;1311;47.966;7.958;2023-09-08T13:56:31;5.30;;;4.90;;
2602;SDS011;1311;47.966;7.958;2023-09-08T13:58:58;4.50;;;4.20;;
2602;SDS011;1311;47.966;7.958;2023-09-08T14:01:24;6.57;;;4.50;;
2602;SDS011;1311;47.966;7.958;2023-09-08T14:03:53;4.47;;;4.17;;
2602;SDS011;1311;47.966;7.958;2023-09-08T14:06:20;5.17;;;4.77;;
2602;SDS011;1311;47.966;7.958;2023-09-08T14:08:47;4.77;;;4.37;;
2602;SDS011;1311;47.966;7.958;2023-09-08T14:11:14;4.70;;;4.30;;
2602;SDS011;1311;47.966;7.958;2023-09-08T14:13:42;4.43;;;4.13;;
2602;SDS011;1311;47.966;7.958;2023-09-08T14:16:09;5.50;;;5.10;;
2602;SDS011;1311;47.966;7.958;2023-09-08T14:18:36;5.80;;;4.77;;
2602;SDS011;1311;47.966;7.958;2023-09-08T14:21:04;5.50;;;4.90;;
2602;SDS011;1311;47.966;7.958;2023-09-08T14:23:30;5.00;;;4.60;;
2602;SDS011;1311;47.966;7.958;2023-09-08T14:25:59;5.50;;;5.10;;
2602;SDS011;1311;47.966;7.958;2023-09-08T14:28:25;5.30;;;4.90;;
2602;SDS011;1311;47.966;7.958;2023-09-08T14:30:54;5.70;;;5.20;;
2602;SDS011;1311;47.966;7.958;2023-09-08T14:33:21;5.70;;;5.10;;
2602;SDS011;1311;47.966;7.958;2023-09-08T14:35:48;5.20;;;4.70;;
2602;SDS011;1311;47.966;7.958;2023-09-08T14:38:16;8.10;;;4.90;;
2602;SDS011;1311;47.966;7.958;2023-09-08T14:40:43;5.03;;;4.63;;
2602;SDS011;1311;47.966;7.958;2023-09-08T14:43:10;6.83;;;4.67;;
2602;SDS011;1311;47.966;7.958;2023-09-08T14:45:37;8.90;;;5.10;;
2602;SDS011;1311;47.966;7.958;2023-09-08T14:48:06;5.20;;;4.80;;
2602;SDS011;1311;47.966;7.958;2023-09-08T14:50:32;7.03;;;4.60;;
2602;SDS011;1311;47.966;7.958;2023-09-08T14:52:59;5.20;;;4.80;;
2602;SDS011;1311;47.966;7.958;2023-09-08T14:55:26;5.10;;;4.70;;
2602;SDS011;1311;47.966;7.958;2023-09-08T14:57:52;5.47;;;4.40;;
2602;SDS011;1311;47.966;7.958;2023-09-08T15:00:19;4.67;;;4.27;;
2602;SDS011;1311;47.966;7.958;2023-09-08T15:02:46;4.90;;;4.40;;
2602;SDS011;1311;47.966;7.958;2023-09-08T15:05:14;4.50;;;4.10;;
2602;SDS011;1311;47.966;7.958;2023-09-08T15:07:41;4.77;;;4.00;;